Time;durP1;ratioP1;P1;durP2;ratioP2;P2;SDS_P1;SDS_P2;PMS_P1;PMS_P2;Temp;Humidity;BMP_temperature;BMP_pressure;BME280_temperature;BME280_humidity;BME280_pressure;Samples;Min_cycle;Max_cycle;Signal;HPM_P1;HPM_P2
2021/10/29 00:00:57;;;;;;;;;;;;;;;-144.99;100.00;52458.28;5029309;28;19977;-62
2021/10/29 00:03:24;;;;;;;;;;;;;;;-144.99;100.00;52456.25;5028807;28;20129;-62
2021/10/29 00:05:50;;;;;;;;;;;;;;;-144.99;100.00;52452.16;5028698;28;19985;-62
2021/10/29 00:08:16;;;;;;;;;;;;;;;-144.99;100.00;52480.72;5029142;28;19985;-62
2021/10/29 00:10:43;;;;;;;;;;;;;;;-144.99;100.00;52468.47;5029650;28;19981;-63
2021/10/29 00:13:09;;;;;;;;;;;;;;;-144.99;100.00;52452.16;5028704;28;20513;-63
2021/10/29 00:15:38;;;;;;;;;;;;;;;-144.99;100.00;52441.97;5045077;28;19988;-62
2021/10/29 00:18:05;;;;;;;;;;;;;;;-144.99;100.00;52468.47;5024391;28;19988;-62
2021/10/29 00:20:31;;;;;;;;;;;;;;;-144.99;100.00;52460.31;5033539;28;20450;-62
2021/10/29 00:22:57;;;;;;;;;;;;;;;-144.99;100.00;52472.56;5032544;28;20001;-64
2021/10/29 00:25:24;;;;;;;;;;;;;;;-144.99;100.00;52490.91;5029069;28;19989;-62
2021/10/29 00:27:50;;;;;;;;;;;;;;;-144.99;100.00;52448.09;5028553;28;20421;-62
2021/10/29 00:30:16;;;;;;;;;;;;;;;-144.99;100.00;52439.94;5040690;28;20394;-61
2021/10/29 00:32:44;;;;;;;;;;;;;;;-144.99;100.00;52476.63;5031100;28;19993;-62
2021/10/29 00:35:10;;;;;;;;;;;;;;;-144.99;100.00;52472.56;5034474;28;20358;-61
2021/10/29 00:37:40;;;;;;;;;;;;;;;-144.99;100.00;52448.09;5033817;28;19982;-62
2021/10/29 00:40:08;;;;;;;;;;;;;;;-144.99;100.00;52468.47;5028960;28;20433;-62
2021/10/29 00:42:34;;;;;;;;;;;;;;;-144.99;100.00;52446.06;5026895;28;20001;-62
2021/10/29 00:45:01;;;;;;;;;;;;;;;-144.99;100.00;52476.63;5039468;28;19973;-64
2021/10/29 00:47:27;;;;;;;;;;;;;;;-144.99;100.00;52452.16;5041122;28;20073;-62
2021/10/29 00:49:55;;;;;;;;;;;;;;;-144.99;100.00;52476.63;5028755;28;19981;-62
2021/10/29 00:52:21;;;;;;;;;;;;;;;-144.99;100.00;52472.56;5028930;28;20006;-61
2021/10/29 00:54:47;;;;;;;;;;;;;;;-144.99;100.00;52488.84;5028629;28;19987;-64
2021/10/29 00:57:14;;;;;;;;;;;;;;;-144.99;100.00;52476.63;5028832;28;20005;-62
2021/10/29 00:59:40;;;;;;;;;;;;;;;-144.99;100.00;52456.25;5028415;28;19982;-61
2021/10/29 01:02:07;;;;;;;;;;;;;;;-144.99;100.00;52452.16;5028482;28;19993;-65
2021/10/29 01:04:33;;;;;;;;;;;;;;;-144.99;100.00;52439.94;5028767;28;19982;-63
2021/10/29 01:07:01;;;;;;;;;;;;;;;-144.99;100.00;52484.78;5028869;28;19982;-63
2021/10/29 01:09:28;;;;;;;;;;;;;;;-144.99;100.00;52448.09;5028738;28;20417;-62
2021/10/29 01:11:54;;;;;;;;;;;;;;;-144.99;100.00;52484.78;5027834;28;20002;-63
2021/10/29 01:14:21;;;;;;;;;;;;;;;-144.99;100.00;52472.56;5032007;28;20382;-63
2021/10/29 01:16:47;;;;;;;;;;;;;;;-144.99;100.00;52460.31;5030999;28;19940;-63
2021/10/29 01:19:13;;;;;;;;;;;;;;;-144.99;100.00;52480.72;5029227;28;19985;-63
2021/10/29 01:21:41;;;;;;;;;;;;;;;-144.99;100.00;52464.41;5028401;28;19977;-63
2021/10/29 01:24:08;;;;;;;;;;;;;;;-144.99;100.00;52476.63;5028531;28;19985;-63
2021/10/29 01:26:34;;;;;;;;;;;;;;;-144.99;100.00;52488.84;5046669;28;19981;-63
2021/10/29 01:29:01;;;;;;;;;;;;;;;-144.99;100.00;52427.72;5048322;28;19981;-63
2021/10/29 01:31:27;;;;;;;;;;;;;;;-144.99;100.00;52448.09;5032553;28;19982;-63
2021/10/29 01:33:54;;;;;;;;;;;;;;;-144.99;100.00;52476.63;5029153;28;19988;-63
2021/10/29 01:36:20;;;;;;;;;;;;;;;-144.99;100.00;52464.41;5037710;28;20003;-63
2021/10/29 01:38:51;;;;;;;;;;;;;;;-144.99;100.00;52480.72;5031483;28;19992;-62
2021/10/29 01:41:17;;;;;;;;;;;;;;;-144.99;100.00;52476.63;5031484;28;19989;-62
2021/10/29 01:43:47;;;;;;;;;;;;;;;-144.99;100.00;52480.72;5029706;28;20004;-63
2021/10/29 01:46:14;;;;;;;;;;;;;;;-144.99;100.00;52446.06;5042953;28;20111;-63
2021/10/29 01:48:41;;;;;;;;;;;;;;;-144.99;100.00;52444.03;5034795;28;19977;-62
2021/10/29 01:51:07;;;;;;;;;;;;;;;-144.99;100.00;52478.66;5031785;28;20035;-62
2021/10/29 01:53:34;;;;;;;;;;;;;;;-144.99;100.00;52456.25;5031548;28;20377;-64
2021/10/29 01:56:01;;;;;;;;;;;;;;;-144.99;100.00;52464.41;5032460;28;19981;-63
2021/10/29 01:58:28;;;;;;;;;;;;;;;-144.99;100.00;52472.56;5031650;28;19988;-63
2021/10/29 02:00:56;;;;;;;;;;;;;;;-144.99;100.00;52427.72;5034121;28;20000;-62
2021/10/29 02:03:22;;;;;;;;;;;;;;;-144.99;100.00;52456.25;5044921;28;20048;-64
2021/10/29 02:05:48;;;;;;;;;;;;;;;-144.99;100.00;52505.16;5050767;28;19981;-62
2021/10/29 02:08:18;;;;;;;;;;;;;;;-144.99;100.00;52454.22;5031246;28;20046;-62
2021/10/29 02:10:44;;;;;;;;;;;;;;;-144.99;100.00;52480.72;5031598;28;20465;-61
2021/10/29 02:13:12;;;;;;;;;;;;;;;-144.99;100.00;52448.09;5032860;28;19989;-61
2021/10/29 02:15:38;;;;;;;;;;;;;;;-144.99;100.00;52472.56;5034556;28;19993;-62
2021/10/29 02:18:04;;;;;;;;;;;;;;;-144.99;100.00;52439.94;5039084;28;19982;-61
2021/10/29 02:20:31;;;;;;;;;;;;;;;-144.99;100.00;52468.47;5031143;28;19981;-62
2021/10/29 02:22:58;;;;;;;;;;;;;;;-144.99;100.00;52476.63;5030711;28;20021;-63
2021/10/29 02:25:24;;;;;;;;;;;;;;;-144.99;100.00;52476.63;5030684;28;20462;-61
2021/10/29 02:27:51;;;;;;;;;;;;;;;-144.99;100.00;52458.28;5030793;28;19999;-62
2021/10/29 02:30:18;;;;;;;;;;;;;;;-144.99;100.00;52448.09;5030512;28;20371;-62
2021/10/29 02:32:45;;;;;;;;;;;;;;;-144.99;100.00;52476.63;5031375;28;20004;-61
2021/10/29 02:35:11;;;;;;;;;;;;;;;-144.99;100.00;52494.97;5033022;28;19981;-62
2021/10/29 02:37:38;;;;;;;;;;;;;;;-144.99;100.00;52472.56;5030809;28;19988;-62
2021/10/29 02:40:05;;;;;;;;;;;;;;;-144.99;100.00;52484.78;5030535;28;19989;-62
2021/10/29 02:42:31;;;;;;;;;;;;;;;-144.99;100.00;52464.41;5030484;28;20080;-64
2021/10/29 02:44:58;;;;;;;;;;;;;;;-144.99;100.00;52476.63;5045974;28;19980;-64
2021/10/29 02:47:26;;;;;;;;;;;;;;;-144.99;100.00;52460.31;5035743;28;19987;-64
2021/10/29 02:49:52;;;;;;;;;;;;;;;-144.99;100.00;52456.25;5030761;28;20072;-64
2021/10/29 02:52:19;;;;;;;;;;;;;;;-144.99;100.00;52458.28;5030382;28;20100;-63
2021/10/29 02:54:45;;;;;;;;;;;;;;;-144.99;100.00;52488.84;5029820;28;19992;-64
2021/10/29 02:57:11;;;;;;;;;;;;;;;-144.99;100.00;52456.25;5029917;28;20435;-63
2021/10/29 02:59:38;;;;;;;;;;;;;;;-144.99;100.00;52460.31;5049090;28;20071;-58
2021/10/29 03:02:05;;;;;;;;;;;;;;;-144.99;100.00;52435.88;5042533;28;19989;-58
2021/10/29 03:04:32;;;;;;;;;;;;;;;-144.99;100.00;52480.72;5034328;28;20040;-58
2021/10/29 03:06:59;;;;;;;;;;;;;;;-144.99;100.00;52497.00;5035809;28;20345;-56
2021/10/29 03:09:25;;;;;;;;;;;;;;;-144.99;99.85;52464.41;5050427;28;19981;-57
2021/10/29 03:11:52;;;;;;;;;;;;;;;-144.99;99.84;52468.47;5043605;28;20028;-58
2021/10/29 03:14:19;;;;;;;;;;;;;;;-144.99;100.00;52464.41;5028299;28;20013;-58
2021/10/29 03:16:45;;;;;;;;;;;;;;;-144.99;100.00;52472.56;5038398;28;20510;-57
2021/10/29 03:19:12;;;;;;;;;;;;;;;-144.99;100.00;52472.56;5030020;28;19981;-57
2021/10/29 03:21:40;;;;;;;;;;;;;;;-144.99;100.00;52484.78;5028928;28;20040;-59
2021/10/29 03:24:06;;;;;;;;;;;;;;;-144.99;100.00;52492.94;5029450;28;20001;-59
2021/10/29 03:26:32;;;;;;;;;;;;;;;-144.99;100.00;52478.66;5033146;28;19981;-58
2021/10/29 03:28:59;;;;;;;;;;;;;;;-144.99;100.00;52472.56;5029479;28;20009;-57
2021/10/29 03:31:25;;;;;;;;;;;;;;;-144.99;100.00;52476.63;5048587;22;19997;-60
2021/10/29 03:33:52;;;;;;;;;;;;;;;-144.99;100.00;52486.81;5051801;28;19993;-59
2021/10/29 03:36:18;;;;;;;;;;;;;;;-144.99;100.00;52468.47;5050151;28;20056;-59
2021/10/29 03:38:54;;;;;;;;;;;;;;;-144.99;100.00;52456.25;5050688;28;20487;-60
2021/10/29 03:41:22;;;;;;;;;;;;;;;-144.99;100.00;52446.06;5050238;28;19985;-59
2021/10/29 03:43:53;;;;;;;;;;;;;;;-144.99;100.00;52472.56;5051474;28;20433;-61
2021/10/29 03:46:22;;;;;;;;;;;;;;;-144.99;100.00;52474.59;5050390;28;20447;-60
2021/10/29 03:48:57;;;;;;;;;;;;;;;-144.99;100.00;52480.72;5050250;28;19981;-61
2021/10/29 03:51:27;;;;;;;;;;;;;;;-144.99;100.00;52480.72;5049755;28;19985;-60
2021/10/29 03:53:58;;;;;;;;;;;;;;;-144.99;100.00;52492.94;5050169;28;19985;-61
2021/10/29 03:56:26;;;;;;;;;;;;;;;-144.99;100.00;52429.75;5049716;28;20003;-62
2021/10/29 03:58:55;;;;;;;;;;;;;;;-144.99;100.00;52517.41;5050531;28;20354;-61
2021/10/29 04:01:22;;;;;;;;;;;;;;;-144.99;100.00;52472.56;5050263;28;19984;-61
2021/10/29 04:03:49;;;;;;;;;;;;;;;-144.99;100.00;52464.41;5049932;28;20041;-62
2021/10/29 04:06:15;;;;;;;;;;;;;;;-144.99;100.00;52468.47;5050180;28;19988;-62
2021/10/29 04:08:42;;;;;;;;;;;;;;;-144.99;100.00;52464.41;5050026;28;19988;-60
2021/10/29 04:11:10;;;;;;;;;;;;;;;-144.99;100.00;52468.47;5049632;28;19985;-62
2021/10/29 04:13:38;;;;;;;;;;;;;;;-144.99;100.00;52492.94;5051672;28;19993;-60
2021/10/29 04:16:05;;;;;;;;;;;;;;;-144.99;100.00;52488.84;5049964;28;19981;-62
2021/10/29 04:18:33;;;;;;;;;;;;;;;-144.99;100.00;52456.25;5049464;28;19987;-62
2021/10/29 04:21:00;;;;;;;;;;;;;;;-144.99;100.00;52492.94;5049493;28;19981;-61
2021/10/29 04:23:26;;;;;;;;;;;;;;;-144.99;99.85;52497.00;5049664;28;20469;-61
2021/10/29 04:25:53;;;;;;;;;;;;;;;-144.99;99.71;52476.63;5049384;28;19981;-62
2021/10/29 04:28:21;;;;;;;;;;;;;;;-144.99;99.66;52517.41;5049428;28;19990;-62
2021/10/29 04:30:47;;;;;;;;;;;;;;;-144.99;99.45;52511.28;5049445;28;19982;-59
2021/10/29 04:33:14;;;;;;;;;;;;;;;-144.99;99.26;52507.19;5049131;28;19973;-65
2021/10/29 04:35:45;;;;;;;;;;;;;;;-144.99;99.01;52501.09;5049580;28;19977;-64
2021/10/29 04:38:12;;;;;;;;;;;;;;;-144.99;98.51;52480.72;5049541;28;19985;-64
2021/10/29 04:40:39;;;;;;;;;;;;;;;-144.99;98.63;52474.59;5049463;28;19996;-64
2021/10/29 04:43:07;;;;;;;;;;;;;;;-144.99;98.11;52444.03;5048209;28;20356;-62
2021/10/29 04:45:35;;;;;;;;;;;;;;;-144.99;97.66;52480.72;5049255;28;19981;-62
2021/10/29 04:48:01;;;;;;;;;;;;;;;-144.99;97.51;52472.56;5049283;28;20095;-62
2021/10/29 04:50:28;;;;;;;;;;;;;;;-144.99;97.52;52472.56;5049421;28;19992;-62
2021/10/29 04:52:55;;;;;;;;;;;;;;;-144.99;97.51;52452.16;5048994;28;20005;-62
2021/10/29 04:55:21;;;;;;;;;;;;;;;-144.99;97.18;52476.63;5049556;28;19981;-62
2021/10/29 04:57:47;;;;;;;;;;;;;;;-144.99;96.97;52474.59;5049054;28;19992;-62
2021/10/29 05:00:14;;;;;;;;;;;;;;;-144.99;97.18;52484.78;5050395;28;19984;-61
2021/10/29 05:02:42;;;;;;;;;;;;;;;-144.99;96.91;52456.25;5049418;28;19993;-61
2021/10/29 05:05:09;;;;;;;;;;;;;;;-144.99;96.85;52456.25;5035949;28;19996;-63
2021/10/29 05:07:36;;;;;;;;;;;;;;;-144.99;97.16;52480.72;5049440;28;19981;-66
2021/10/29 05:10:03;;;;;;;;;;;;;;;-144.99;96.84;52505.16;5049054;28;19981;-62
2021/10/29 05:12:30;;;;;;;;;;;;;;;-144.99;96.85;52452.16;4001813;28;10000707;-62
2021/10/29 05:14:56;;;;;;;;;;;;;;;-144.99;97.37;52492.94;5050120;28;19977;-63
2021/10/29 05:17:23;;;;;;;;;;;;;;;-144.99;96.98;52452.16;5050625;28;19990;-62
2021/10/29 05:19:50;;;;;;;;;;;;;;;-144.99;96.98;52448.09;5050234;28;19992;-63
2021/10/29 05:22:17;;;;;;;;;;;;;;;-144.99;97.43;52501.09;5050347;28;19997;-63
2021/10/29 05:24:43;;;;;;;;;;;;;;;-144.99;96.73;52488.84;5049990;28;20549;-61
2021/10/29 05:27:10;;;;;;;;;;;;;;;-144.99;96.86;52464.41;5050232;28;19981;-62
2021/10/29 05:29:36;;;;;;;;;;;;;;;-144.99;96.68;52484.78;5050066;28;20422;-61
2021/10/29 05:32:03;;;;;;;;;;;;;;;-144.99;96.96;52501.09;5050592;28;20409;-61
2021/10/29 05:34:29;;;;;;;;;;;;;;;-144.99;96.59;52488.84;5049817;28;20007;-62
2021/10/29 05:36:57;;;;;;;;;;;;;;;-144.99;96.80;52519.44;5049784;28;20384;-62
2021/10/29 05:39:24;;;;;;;;;;;;;;;-144.99;96.09;52505.16;5049791;28;19991;-62
2021/10/29 05:41:50;;;;;;;;;;;;;;;-144.99;96.16;52476.63;5049988;28;20009;-62
2021/10/29 05:44:17;;;;;;;;;;;;;;;-144.99;96.16;52476.63;5047573;28;20001;-61
2021/10/29 05:46:44;;;;;;;;;;;;;;;-144.99;95.74;52456.25;5050081;28;20466;-62
2021/10/29 05:49:12;;;;;;;;;;;;;;;-144.99;95.40;52435.88;5049719;28;20623;-61
2021/10/29 05:51:43;;;;;;;;;;;;;;;-144.99;95.46;52509.25;5049135;28;19985;-62
2021/10/29 05:54:13;;;;;;;;;;;;;;;-144.99;95.80;52490.91;5049501;28;20023;-62
2021/10/29 05:56:40;;;;;;;;;;;;;;;-144.99;95.68;52492.94;5049471;28;20031;-62
2021/10/29 05:59:06;;;;;;;;;;;;;;;-144.99;95.40;52452.16;5049703;28;19981;-63
2021/10/29 06:01:33;;;;;;;;;;;;;;;-144.99;95.42;52505.16;5049775;28;19988;-61
2021/10/29 06:03:59;;;;;;;;;;;;;;;-144.99;95.68;52480.72;5049200;28;20082;-62
2021/10/29 06:06:26;;;;;;;;;;;;;;;-144.99;95.76;52492.94;5048357;28;19992;-62
2021/10/29 06:08:52;;;;;;;;;;;;;;;-144.99;95.46;52476.63;5049008;28;20037;-62
2021/10/29 06:11:20;;;;;;;;;;;;;;;-144.99;95.46;52448.09;5049035;28;20345;-61
2021/10/29 06:13:47;;;;;;;;;;;;;;;-144.99;94.93;52480.72;5046598;28;20033;-62
2021/10/29 06:16:13;;;;;;;;;;;;;;;-144.99;94.99;52480.72;5049411;28;19985;-62
2021/10/29 06:18:40;;;;;;;;;;;;;;;-144.99;94.89;52460.31;5049756;28;19985;-63
2021/10/29 06:21:06;;;;;;;;;;;;;;;-144.99;100.00;52427.72;5048550;28;19993;-68
2021/10/29 06:23:38;;;;;;;;;;;;;;;-144.99;98.35;52501.09;5048678;28;20100;-68
2021/10/29 06:26:11;;;;;;;;;;;;;;;-144.99;97.88;52441.97;5049119;28;20024;-69
2021/10/29 06:28:41;;;;;;;;;;;;;;;-144.99;98.21;52427.72;5049604;28;20055;-68
2021/10/29 06:31:07;;;;;;;;;;;;;;;-144.99;98.05;52464.41;5049485;28;20390;-69
2021/10/29 06:33:36;;;;;;;;;;;;;;;-144.99;95.27;52456.25;5048971;28;20369;-67
2021/10/29 06:36:03;;;;;;;;;;;;;;;-144.99;93.70;52439.94;5049404;28;20008;-68
2021/10/29 06:38:29;;;;;;;;;;;;;;;-144.99;92.88;52444.03;5049435;28;19985;-67
2021/10/29 06:40:56;;;;;;;;;;;;;;;-144.99;92.43;52472.56;5049543;28;19989;-67
2021/10/29 06:43:25;;;;;;;;;;;;;;;-144.99;91.98;52444.03;5047633;28;20000;-67
2021/10/29 06:46:15;;;;;;;;;;;;;;;-144.99;91.23;52423.63;5047289;28;20004;-68
2021/10/29 06:48:52;;;;;;;;;;;;;;;-144.99;91.01;52503.13;5049054;28;20472;-70
2021/10/29 06:59:38;;;;;;;;;;;;;;;-144.99;88.77;52460.31;5048858;28;19988;-67
2021/10/29 07:02:27;;;;;;;;;;;;;;;-144.99;88.50;52452.16;5048737;28;20012;-68
2021/10/29 07:40:42;;;;;;;;;;;;;;;-144.99;79.85;52435.88;5050875;28;20428;-67
2021/10/29 07:43:11;;;;;;;;;;;;;;;-144.99;78.63;52472.56;5052053;28;19993;-67
2021/10/29 07:45:37;;;;;;;;;;;;;;;-144.99;78.29;52435.88;5048119;28;20479;-67
2021/10/29 07:48:04;;;;;;;;;;;;;;;-144.99;77.65;52413.44;5047970;28;19981;-67
2021/10/29 07:50:31;;;;;;;;;;;;;;;-144.99;76.79;52388.97;5047738;28;19981;-67
2021/10/29 07:52:59;;;;;;;;;;;;;;;-144.99;76.95;52448.09;5047091;28;19997;-66
2021/10/29 07:55:27;;;;;;;;;;;;;;;-144.99;76.29;52423.63;5047418;28;19985;-66
2021/10/29 07:57:59;;;;;;;;;;;;;;;-144.99;75.65;52393.06;5047407;28;19985;-66
2021/10/29 08:00:25;;;;;;;;;;;;;;;-144.99;74.87;52439.94;5047527;28;20462;-66
2021/10/29 08:02:52;;;;;;;;;;;;;;;-144.99;74.39;52431.78;5047478;28;20004;-68
2021/10/29 08:05:18;;;;;;;;;;;;;;;-144.99;73.54;52452.16;5047253;28;20001;-67
2021/10/29 08:07:46;;;;;;;;;;;;;;;-144.99;72.24;52399.19;5047529;28;20518;-67
2021/10/29 08:10:12;;;;;;;;;;;;;;;-144.99;71.73;52403.25;5047530;28;19992;-67
2021/10/29 08:12:39;;;;;;;;;;;;;;;-144.99;70.86;52419.56;5046140;28;20007;-67
2021/10/29 08:15:07;;;;;;;;;;;;;;;-144.99;70.34;52386.94;5047672;28;20021;-66
2021/10/29 08:17:34;;;;;;;;;;;;;;;-144.99;69.13;52391.03;5047435;28;19988;-67
2021/10/29 08:20:01;;;;;;;;;;;;;;;-144.99;68.48;52391.03;5047419;28;19992;-68
2021/10/29 08:22:28;;;;;;;;;;;;;;;-144.99;67.07;52393.06;5046752;28;20521;-68
2021/10/29 08:24:55;;;;;;;;;;;;;;;-144.99;68.13;52395.09;5051131;28;20008;-66
2021/10/29 08:27:22;;;;;;;;;;;;;;;-144.99;68.51;52382.88;5048416;28;20349;-66
2021/10/29 08:29:48;;;;;;;;;;;;;;;-144.99;66.90;52439.94;5049232;28;20441;-66
2021/10/29 08:32:15;;;;;;;;;;;;;;;-144.99;67.21;52441.97;5047887;28;20013;-66
2021/10/29 08:34:42;;;;;;;;;;;;;;;-144.99;67.48;52378.78;5047930;28;20234;-66
2021/10/29 08:37:09;;;;;;;;;;;;;;;-144.99;66.51;52364.53;5047477;28;19985;-66
2021/10/29 08:39:37;;;;;;;;;;;;;;;-144.99;67.76;52407.31;5047318;28;19981;-66
2021/10/29 08:42:06;;;;;;;;;;;;;;;-144.99;66.63;52358.41;5046798;28;20399;-67
2021/10/29 08:44:33;;;;;;;;;;;;;;;-144.99;66.06;52407.31;5049146;28;20194;-66
2021/10/29 08:47:01;;;;;;;;;;;;;;;-144.99;64.48;52374.72;5049077;28;19985;-65
2021/10/29 08:49:28;;;;;;;;;;;;;;;-144.99;64.44;52415.47;5051548;28;19996;-67
2021/10/29 08:51:54;;;;;;;;;;;;;;;-144.99;64.89;52395.09;5051117;28;20016;-66
2021/10/29 08:54:21;;;;;;;;;;;;;;;-144.99;64.52;52370.63;5050695;28;19985;-65
2021/10/29 08:56:47;;;;;;;;;;;;;;;-144.99;65.97;52395.09;5050330;28;19985;-67
2021/10/29 08:59:18;;;;;;;;;;;;;;;-144.99;64.88;52403.25;5050873;28;20024;-67
2021/10/29 09:01:50;;;;;;;;;;;;;;;-144.99;63.63;52386.94;5050842;28;20216;-66
2021/10/29 09:04:18;;;;;;;;;;;;;;;-144.99;62.96;52358.41;5050404;28;20016;-66
2021/10/29 09:06:51;;;;;;;;;;;;;;;-144.99;62.76;52413.44;5050645;28;20548;-67
2021/10/29 09:09:32;;;;;;;;;;;;;;;-144.99;61.94;52391.03;5050314;28;20420;-67
2021/10/29 09:12:13;;;;;;;;;;;;;;;-144.99;60.44;52374.72;5050970;28;20071;-67
2021/10/29 09:31:29;;;;;;;;;;;;;;;-144.99;55.94;52329.88;5050462;28;20042;-66
2021/10/29 09:33:57;;;;;;;;;;;;;;;-144.99;56.08;52346.19;5064824;22;19947;-69
2021/10/29 09:36:27;;;;;;;;;;;;;;;-144.99;54.74;52317.66;5056289;28;20026;-69
2021/10/29 09:38:57;;;;;;;;;;;;;;;-144.99;53.64;52352.28;5054564;28;19996;-69
2021/10/29 09:41:23;;;;;;;;;;;;;;;-144.99;52.97;52378.78;5050344;28;19992;-69
2021/10/29 09:43:54;;;;;;;;;;;;;;;-144.99;52.92;52293.19;5067011;28;20001;-69
2021/10/29 09:46:30;;;;;;;;;;;;;;;-144.99;52.12;52321.72;5069746;28;20470;-69
2021/10/29 09:49:03;;;;;;;;;;;;;;;-144.99;50.96;52264.66;5069448;28;20425;-70
2021/10/29 09:51:33;;;;;;;;;;;;;;;-144.99;51.36;52313.56;5069199;28;20403;-70
2021/10/29 09:54:09;;;;;;;;;;;;;;;-144.99;50.33;52276.88;5068544;28;20094;-69
2021/10/29 09:56:45;;;;;;;;;;;;;;;-144.99;49.76;52240.19;5069323;28;19984;-69
2021/10/29 09:59:12;;;;;;;;;;;;;;;-144.99;48.81;52278.91;5068348;28;20522;-69
2021/10/29 10:01:40;;;;;;;;;;;;;;;-144.99;48.28;52258.53;5069423;28;19980;-70
2021/10/29 10:04:06;;;;;;;;;;;;;;;-144.99;48.21;52240.19;5069169;28;19988;-70
2021/10/29 10:06:34;;;;;;;;;;;;;;;-144.99;46.52;52203.50;5068512;28;20384;-70
2021/10/29 10:09:03;;;;;;;;;;;;;;;-144.99;46.07;52160.72;5068940;28;20392;-70
2021/10/29 10:11:30;;;;;;;;;;;;;;;-144.99;45.24;52179.06;5068809;28;20030;-70
2021/10/29 10:13:57;;;;;;;;;;;;;;;-144.99;44.75;52195.34;5062531;28;19992;-70
2021/10/29 10:16:25;;;;;;;;;;;;;;;-144.99;44.41;52183.13;5068803;28;20460;-70
2021/10/29 10:18:53;;;;;;;;;;;;;;;-144.99;44.46;52191.28;5068882;28;19984;-69
2021/10/29 10:21:21;;;;;;;;;;;;;;;-144.99;44.34;52207.59;5068139;28;20472;-69
2021/10/29 10:23:51;;;;;;;;;;;;;;;-144.99;44.59;52170.91;5068338;28;20027;-70
2021/10/29 10:26:30;;;;;;;;;;;;;;;-144.99;44.68;52170.91;5068289;28;20016;-71
2021/10/29 10:40:41;;;;;;;;;;;;;;;-144.99;43.41;52142.38;5069303;28;20027;-71
2021/10/29 10:43:20;;;;;;;;;;;;;;;-144.99;42.96;52105.69;5068500;28;19989;-69
2021/10/29 10:45:54;;;;;;;;;;;;;;;-144.99;43.29;52134.22;5068425;28;19996;-69
2021/10/29 10:48:24;;;;;;;;;;;;;;;-144.99;42.73;52146.44;5068279;28;20049;-70
2021/10/29 10:50:54;;;;;;;;;;;;;;;-144.99;42.64;52158.66;5068812;28;20290;-69
2021/10/29 10:53:33;;;;;;;;;;;;;;;-144.99;42.34;52130.13;5068401;28;20373;-69
2021/10/29 11:01:58;;;;;;;;;;;;;;;-144.99;42.20;52136.25;5067551;28;20415;-69
2021/10/29 11:04:39;;;;;;;;;;;;;;;-144.99;42.41;52121.97;5062633;28;19981;-69
2021/10/29 11:07:39;;;;;;;;;;;;;;;-144.99;41.75;52109.75;5067525;28;20066;-69
2021/10/29 11:10:07;;;;;;;;;;;;;;;-144.99;41.71;52162.75;5067086;28;19995;-70
2021/10/29 11:12:52;;;;;;;;;;;;;;;-144.99;41.21;52121.97;5059766;28;20131;-70
2021/10/29 11:15:20;;;;;;;;;;;;;;;-144.99;39.74;52056.78;5061681;28;19980;-71
2021/10/29 11:17:48;;;;;;;;;;;;;;;-144.99;38.64;52064.91;5068888;28;19980;-68
2021/10/29 11:20:29;;;;;;;;;;;;;;;-144.99;38.71;52071.03;5068001;28;19928;-68
2021/10/29 11:23:03;;;;;;;;;;;;;;;-144.99;38.69;52097.53;5066570;28;20003;-69
2021/10/29 11:25:47;;;;;;;;;;;;;;;-144.99;38.40;52056.78;5068276;28;20005;-69
2021/10/29 11:28:14;;;;;;;;;;;;;;;-144.99;37.43;52056.78;5067942;28;19980;-68
2021/10/29 11:30:41;;;;;;;;;;;;;;;-144.99;37.02;52011.94;5067920;28;20402;-68
2021/10/29 11:33:08;;;;;;;;;;;;;;;-144.99;36.61;52036.38;5067499;28;20521;-68
2021/10/29 11:35:36;;;;;;;;;;;;;;;-144.99;35.83;52007.84;5067390;28;20356;-69
2021/10/29 11:38:05;;;;;;;;;;;;;;;-144.99;35.69;52007.84;5067618;28;20516;-68
2021/10/29 11:40:31;;;;;;;;;;;;;;;-144.99;35.53;52028.22;5067198;28;19988;-68
2021/10/29 11:42:58;;;;;;;;;;;;;;;-144.99;36.50;52060.84;5065244;28;19992;-68
2021/10/29 11:45:32;;;;;;;;;;;;;;;-144.99;36.87;52075.09;5067087;28;20024;-68
2021/10/29 11:47:58;;;;;;;;;;;;;;;-144.99;36.80;52081.22;5067343;28;20032;-68
2021/10/29 11:50:25;;;;;;;;;;;;;;;-144.99;36.73;52093.44;5067678;28;19981;-68
2021/10/29 11:52:52;;;;;;;;;;;;;;;-144.99;36.89;52075.09;5066940;28;19996;-68
2021/10/29 11:55:24;;;;;;;;;;;;;;;-144.99;36.54;52077.16;5067382;28;19991;-68
2021/10/29 11:57:58;;;;;;;;;;;;;;;-144.99;37.12;52156.63;5066634;28;20010;-69
2021/10/29 12:00:36;;;;;;;;;;;;;;;-144.99;37.01;52095.50;5067006;28;20461;-69
2021/10/29 12:06:10;;;;;;;;;;;;;;;-144.99;38.59;52158.66;5056631;28;20003;-69
2021/10/29 12:08:37;;;;;;;;;;;;;;;-144.99;37.98;52126.06;5066822;28;20004;-68
2021/10/29 12:11:07;;;;;;;;;;;;;;;-144.99;37.67;52081.22;5066782;28;20469;-68
2021/10/29 12:13:36;;;;;;;;;;;;;;;-144.99;36.94;52101.59;5057339;28;20001;-69
2021/10/29 12:16:02;;;;;;;;;;;;;;;-144.99;37.05;52150.53;5060714;28;20395;-69
2021/10/29 12:18:34;;;;;;;;;;;;;;;-144.99;37.27;52183.13;5054258;28;20003;-70
2021/10/29 12:21:00;;;;;;;;;;;;;;;-144.99;38.83;52232.03;5066478;28;20096;-69
2021/10/29 12:23:28;;;;;;;;;;;;;;;-144.99;39.81;52278.91;5067247;28;20483;-70
2021/10/29 12:26:03;;;;;;;;;;;;;;;-144.99;40.19;52211.66;5068082;28;20040;-70
2021/10/29 12:28:34;;;;;;;;;;;;;;;-144.99;40.12;52211.66;5066947;28;20037;-69
2021/10/29 12:31:08;;;;;;;;;;;;;;;-144.99;40.07;52187.19;5067866;28;20364;-70
2021/10/29 12:53:26;;;;;;;;;;;;;;;-144.99;40.69;52268.72;5065516;28;20092;-69
2021/10/29 12:59:17;;;;;;;;;;;;;;;-144.99;41.96;52268.72;5066644;28;19988;-69
2021/10/29 13:01:54;;;;;;;;;;;;;;;-144.99;42.22;52278.91;5065510;28;19977;-69
2021/10/29 13:04:22;;;;;;;;;;;;;;;-144.99;41.75;52252.44;5066150;28;20083;-70
2021/10/29 13:06:50;;;;;;;;;;;;;;;-144.99;41.05;52219.81;5066242;28;19997;-70
2021/10/29 13:09:19;;;;;;;;;;;;;;;-144.99;40.30;52211.66;5066808;28;20050;-70
2021/10/29 13:11:46;;;;;;;;;;;;;;;-144.99;40.52;52217.78;5064527;28;20008;-70
2021/10/29 13:14:15;;;;;;;;;;;;;;;-144.99;40.61;52201.47;5056005;28;19981;-70
2021/10/29 13:16:42;;;;;;;;;;;;;;;-144.99;40.84;52187.19;5066024;28;20020;-72
2021/10/29 13:19:20;;;;;;;;;;;;;;;-144.99;40.32;52203.50;5066948;28;20072;-71
2021/10/29 13:24:58;;;;;;;;;;;;;;;-144.99;39.99;52215.75;5061465;28;20129;-72
2021/10/29 13:27:40;;;;;;;;;;;;;;;-144.99;40.30;52248.34;5059447;28;20004;-71
2021/10/29 13:35:51;;;;;;;;;;;;;;;-144.99;42.02;52280.97;5069064;28;19983;-72
2021/10/29 13:52:31;;;;;;;;;;;;;;;-144.99;44.01;52293.19;5067868;28;20504;-72
2021/10/29 13:55:14;;;;;;;;;;;;;;;-144.99;44.60;52325.81;4719425;28;10000517;-71
2021/10/29 14:03:38;;;;;;;;;;;;;;;-144.99;44.85;52319.69;5063713;28;20039;-72
2021/10/29 14:24:22;;;;;;;;;;;;;;;-144.99;45.23;52342.09;5070108;28;20052;-72
2021/10/29 14:28:22;;;;;;;;;;;;;;;-144.99;46.83;52350.25;5059125;28;20062;-72
2021/10/29 14:30:55;;;;;;;;;;;;;;;-144.99;47.80;52382.88;5071642;28;19988;-72
2021/10/29 14:33:25;;;;;;;;;;;;;;;-144.99;48.29;52395.09;5070550;28;20372;-70
2021/10/29 14:35:54;;;;;;;;;;;;;;;-144.99;49.14;52374.72;5070827;28;20067;-70
2021/10/29 14:38:29;;;;;;;;;;;;;;;-144.99;49.70;52391.03;5071490;28;20071;-70
2021/10/29 14:41:00;;;;;;;;;;;;;;;-144.99;50.65;52425.66;5070902;28;20009;-71
2021/10/29 14:43:29;;;;;;;;;;;;;;;-144.99;50.69;52403.25;5066563;28;20514;-72
2021/10/29 14:46:08;;;;;;;;;;;;;;;-144.99;51.16;52403.25;5070520;28;19977;-70
2021/10/29 14:48:45;;;;;;;;;;;;;;;-144.99;51.65;52419.56;5071304;28;19981;-71
2021/10/29 14:51:33;;;;;;;;;;;;;;;-144.99;52.21;52378.78;5070700;28;20476;-70
2021/10/29 15:02:41;;;;;;;;;;;;;;;-144.99;54.64;52403.25;5071521;28;20496;-70
2021/10/29 15:05:19;;;;;;;;;;;;;;;-144.99;55.51;52431.78;5067385;28;20469;-72
2021/10/29 15:16:10;;;;;;;;;;;;;;;-144.99;57.99;52415.47;5059320;28;20519;-72
2021/10/29 15:27:00;;;;;;;;;;;;;;;-144.99;58.93;52435.88;5069183;28;20003;-71
2021/10/29 15:29:34;;;;;;;;;;;;;;;-144.99;59.32;52415.47;5070256;28;20334;-71